createdAt,value
2023-03-24T00:00:20.671Z,6.74
2023-03-24T00:02:56.641Z,6.74
2023-03-24T00:05:24.052Z,6.76
2023-03-24T00:10:22.817Z,6.79
2023-03-24T00:12:50.590Z,6.80
2023-03-24T00:15:21.199Z,6.81
2023-03-24T00:17:50.663Z,6.82
2023-03-24T00:20:20.511Z,6.83
2023-03-24T00:22:50.967Z,6.85
2023-03-24T00:25:20.340Z,6.87
2023-03-24T00:27:49.016Z,6.87
2023-03-24T00:30:17.405Z,6.86
2023-03-24T00:32:46.410Z,6.87
2023-03-24T00:35:16.440Z,6.88
2023-03-24T00:37:44.714Z,6.87
2023-03-24T00:40:16.627Z,6.88
2023-03-24T00:42:45.985Z,6.86
2023-03-24T00:45:16.049Z,6.87
2023-03-24T00:47:44.863Z,6.86
2023-03-24T00:50:17.961Z,6.86
2023-03-24T00:52:48.347Z,6.84
2023-03-24T00:55:16.046Z,6.86
2023-03-24T00:57:50.956Z,6.83
2023-03-24T01:00:21.521Z,6.82
2023-03-24T01:02:53.712Z,6.81
2023-03-24T01:05:22.344Z,6.81
2023-03-24T01:07:52.307Z,6.80
2023-03-24T01:10:21.887Z,6.80
2023-03-24T01:12:48.973Z,6.79
2023-03-24T01:15:18.669Z,6.79
2023-03-24T01:17:47.287Z,6.80
2023-03-24T01:20:14.236Z,6.81
2023-03-24T01:22:45.031Z,6.82
2023-03-24T01:25:16.456Z,6.83
2023-03-24T01:27:44.397Z,6.84
2023-03-24T01:30:14.632Z,6.84
2023-03-24T01:32:41.906Z,6.85
2023-03-24T01:35:08.968Z,6.86
2023-03-24T01:37:35.956Z,6.86
2023-03-24T01:40:06.784Z,6.89
2023-03-24T01:42:33.529Z,6.91
2023-03-24T01:45:21.987Z,6.92
2023-03-24T01:47:49.375Z,6.94
2023-03-24T01:50:16.211Z,6.97
2023-03-24T01:52:43.186Z,7.01
2023-03-24T01:55:16.155Z,7.05
2023-03-24T01:57:47.816Z,7.08
2023-03-24T02:00:18.254Z,7.11
2023-03-24T02:02:49.606Z,7.14
2023-03-24T02:05:17.734Z,7.17
2023-03-24T02:07:53.880Z,7.18
2023-03-24T02:10:23.444Z,7.21
2023-03-24T02:12:50.447Z,7.21
2023-03-24T02:15:19.406Z,7.22
2023-03-24T02:18:01.405Z,7.22
2023-03-24T02:20:43.543Z,7.21
2023-03-24T02:23:41.002Z,7.19
2023-03-24T02:26:32.040Z,7.16
2023-03-24T02:29:20.561Z,7.14
2023-03-24T02:32:17.807Z,7.12
2023-03-24T02:35:03.368Z,7.15
2023-03-24T02:37:39.157Z,7.15
2023-03-24T02:40:27.468Z,7.12
2023-03-24T02:43:17.307Z,7.10
2023-03-24T02:45:50.374Z,7.08
2023-03-24T02:48:32.702Z,7.06
2023-03-24T02:51:27.698Z,7.03
2023-03-24T02:54:16.304Z,7.02
2023-03-24T02:56:51.993Z,7.00
2023-03-24T02:59:31.993Z,7.01
2023-03-24T03:02:07.451Z,7.01
2023-03-24T03:04:46.578Z,7.02
2023-03-24T03:07:16.943Z,7.02
2023-03-24T03:10:00.112Z,7.03
2023-03-24T03:12:31.719Z,7.00
2023-03-24T03:15:06.484Z,6.99
2023-03-24T03:17:38.811Z,6.96
2023-03-24T03:20:16.183Z,6.97
2023-03-24T03:22:49.745Z,6.94
2023-03-24T03:25:22.885Z,6.92
2023-03-24T03:27:53.106Z,6.92
2023-03-24T03:30:30.600Z,6.93
2023-03-24T03:33:04.179Z,6.92
2023-03-24T03:35:37.733Z,6.93
2023-03-24T03:38:07.430Z,6.93
2023-03-24T03:40:41.981Z,6.91
2023-03-24T03:43:09.187Z,6.91
2023-03-24T03:45:35.878Z,6.91
2023-03-24T03:48:02.596Z,6.93
2023-03-24T03:50:29.534Z,6.93
2023-03-24T03:52:57.640Z,6.95
2023-03-24T03:55:24.457Z,6.97
2023-03-24T03:57:51.315Z,6.99
2023-03-24T04:00:20.570Z,7.00
2023-03-24T04:03:17.733Z,7.03
2023-03-24T04:06:27.926Z,7.06
2023-03-24T04:09:37.411Z,7.09
2023-03-24T04:12:34.328Z,7.11
2023-03-24T04:15:08.093Z,7.11
2023-03-24T04:17:50.019Z,7.09
2023-03-24T04:20:24.337Z,7.09
2023-03-24T04:23:14.582Z,7.11
2023-03-24T04:26:01.585Z,7.14
2023-03-24T04:28:48.044Z,7.16
2023-03-24T04:31:37.852Z,7.17
2023-03-24T04:34:20.852Z,7.20
2023-03-24T04:36:50.466Z,7.21
2023-03-24T04:39:28.120Z,7.21
2023-03-24T04:41:58.529Z,7.23
2023-03-24T04:44:26.623Z,7.23
2023-03-24T04:46:56.925Z,7.23
2023-03-24T04:49:27.330Z,7.22
2023-03-24T04:51:55.131Z,7.20
2023-03-24T04:54:23.332Z,7.19
2023-03-24T04:56:59.503Z,7.20
2023-03-24T04:59:26.226Z,7.20
2023-03-24T05:01:52.977Z,7.19
2023-03-24T05:04:22.784Z,7.17
2023-03-24T05:06:50.290Z,7.16
2023-03-24T05:09:24.878Z,7.16
2023-03-24T05:11:52.132Z,7.17
2023-03-24T05:14:19.010Z,7.16
2023-03-24T05:16:45.734Z,7.16
2023-03-24T05:19:12.958Z,7.16
2023-03-24T05:21:39.696Z,7.16
2023-03-24T05:24:06.905Z,7.16
2023-03-24T05:26:33.699Z,7.16
2023-03-24T05:29:01.154Z,7.17
2023-03-24T05:31:27.863Z,7.16
2023-03-24T05:33:55.652Z,7.17
2023-03-24T05:36:22.323Z,7.17
2023-03-24T05:38:49.045Z,7.16
2023-03-24T05:41:16.143Z,7.17
2023-03-24T05:43:42.760Z,7.17
2023-03-24T05:46:09.411Z,7.18
2023-03-24T05:48:36.211Z,7.20
2023-03-24T05:51:02.940Z,7.23
2023-03-24T05:53:29.608Z,7.23
2023-03-24T05:55:58.735Z,7.24
2023-03-24T05:58:25.526Z,7.24
2023-03-24T06:00:52.200Z,7.25
2023-03-24T06:03:19.078Z,7.27
2023-03-24T06:05:48.165Z,7.29
2023-03-24T06:08:14.857Z,7.30
2023-03-24T06:10:41.460Z,7.30
2023-03-24T06:13:09.441Z,7.30
2023-03-24T06:15:39.628Z,7.29
2023-03-24T06:18:07.951Z,7.30
2023-03-24T06:20:36.135Z,7.32
2023-03-24T06:23:03.028Z,7.32
2023-03-24T06:25:30.075Z,7.33
2023-03-24T06:27:56.854Z,7.33
2023-03-24T06:30:23.656Z,7.32
2023-03-24T06:32:50.420Z,7.32
2023-03-24T06:35:17.435Z,7.31
2023-03-24T06:37:44.971Z,7.29
2023-03-24T06:40:14.768Z,7.27
2023-03-24T06:42:41.568Z,7.26
2023-03-24T06:45:09.847Z,7.28
2023-03-24T06:47:37.099Z,7.27
2023-03-24T06:50:05.644Z,7.29
2023-03-24T06:52:32.296Z,7.32
2023-03-24T06:54:59.160Z,7.34
2023-03-24T06:57:26.097Z,7.41
2023-03-24T06:59:53.414Z,7.42
2023-03-24T07:02:20.466Z,7.47
2023-03-24T07:04:47.704Z,7.49
2023-03-24T07:07:44.889Z,7.53
2023-03-24T07:10:01.310Z,7.57
2023-03-24T07:12:28.415Z,7.62
2023-03-24T07:14:56.100Z,7.67
2023-03-24T07:17:24.254Z,7.72
2023-03-24T07:19:51.520Z,7.75
2023-03-24T07:22:18.255Z,7.76
2023-03-24T07:24:44.888Z,7.78
2023-03-24T07:27:11.917Z,7.78
2023-03-24T07:29:38.497Z,7.83
2023-03-24T07:32:05.257Z,7.87
2023-03-24T07:34:32.273Z,7.89
2023-03-24T07:37:00.706Z,7.96
2023-03-24T07:39:28.706Z,8.05
2023-03-24T07:41:55.350Z,8.09
2023-03-24T07:44:22.790Z,8.07
2023-03-24T07:46:49.617Z,8.07
2023-03-24T07:49:19.887Z,8.10
2023-03-24T07:51:46.932Z,8.12
2023-03-24T07:54:13.565Z,8.18
2023-03-24T07:56:40.656Z,8.23
2023-03-24T07:59:09.780Z,8.26
2023-03-24T08:01:38.750Z,8.28
2023-03-24T08:04:06.903Z,8.32
2023-03-24T08:06:34.845Z,8.39
2023-03-24T08:09:01.785Z,8.42
2023-03-24T08:11:28.558Z,8.43
2023-03-24T08:13:55.289Z,8.46
2023-03-24T08:16:22.141Z,8.49
2023-03-24T08:18:50.722Z,8.50
2023-03-24T08:21:17.391Z,8.50
2023-03-24T08:23:44.371Z,8.53
2023-03-24T08:26:12.039Z,8.55
2023-03-24T08:28:39.206Z,8.56
2023-03-24T08:31:06.210Z,8.54
2023-03-24T08:33:33.278Z,8.54
2023-03-24T08:36:01.017Z,8.53
2023-03-24T08:38:31.193Z,8.54
2023-03-24T08:41:06.908Z,8.56
2023-03-24T08:43:35.587Z,8.61
2023-03-24T08:46:03.009Z,8.69
2023-03-24T08:48:30.644Z,8.78
2023-03-24T08:50:58.337Z,8.87
2023-03-24T08:53:25.070Z,8.98
2023-03-24T08:55:52.525Z,9.08
2023-03-24T08:58:21.009Z,9.12
2023-03-24T09:00:48.978Z,9.18
2023-03-24T09:03:22.475Z,9.21
2023-03-24T09:05:50.162Z,9.22
2023-03-24T09:08:18.538Z,9.26
2023-03-24T09:10:47.133Z,9.39
2023-03-24T09:13:14.205Z,9.61
2023-03-24T09:15:50.347Z,9.75
2023-03-24T09:18:18.799Z,9.81
2023-03-24T09:20:46.853Z,9.86
2023-03-24T09:23:14.051Z,10.50
2023-03-24T09:25:40.919Z,11.05
2023-03-24T09:28:08.749Z,11.63
2023-03-24T09:30:36.198Z,11.72
2023-03-24T09:33:04.082Z,11.63
2023-03-24T09:35:30.913Z,11.58
2023-03-24T09:37:57.823Z,11.85
2023-03-24T09:40:29.029Z,12.56
2023-03-24T09:43:27.484Z,13.16
2023-03-24T09:45:57.616Z,12.94
2023-03-24T09:48:43.580Z,12.38
2023-03-24T09:51:31.543Z,12.02
2023-03-24T09:54:07.862Z,12.35
2023-03-24T09:56:38.216Z,13.31
2023-03-24T09:59:10.926Z,13.83
2023-03-24T10:01:37.657Z,13.95
2023-03-24T10:04:05.270Z,14.03
2023-03-24T10:06:39.994Z,13.89
2023-03-24T10:09:13.236Z,13.62
2023-03-24T10:11:51.944Z,13.41
2023-03-24T10:14:38.298Z,13.02
2023-03-24T10:17:28.930Z,12.34
2023-03-24T10:20:03.572Z,11.92
2023-03-24T10:22:55.094Z,11.77
2023-03-24T10:25:42.301Z,12.10
2023-03-24T10:28:20.576Z,12.16
2023-03-24T10:30:49.545Z,12.18
2023-03-24T10:33:16.471Z,12.15
2023-03-24T10:35:51.831Z,11.97
2023-03-24T10:38:21.424Z,11.83
2023-03-24T10:40:52.088Z,11.75
2023-03-24T10:43:19.623Z,11.57
2023-03-24T10:45:52.627Z,11.44
2023-03-24T10:48:42.322Z,11.46
2023-03-24T10:51:32.186Z,11.60
2023-03-24T10:54:15.655Z,12.11
2023-03-24T10:56:46.197Z,12.28
2023-03-24T10:59:47.238Z,12.89
2023-03-24T11:02:33.656Z,13.37
2023-03-24T11:05:13.202Z,13.61
2023-03-24T11:07:42.792Z,13.67
2023-03-24T11:10:09.369Z,13.78
2023-03-24T11:12:40.484Z,13.88
2023-03-24T11:15:23.005Z,13.72
2023-03-24T11:18:06.589Z,13.56
2023-03-24T11:20:35.881Z,13.53
2023-03-24T11:23:32.978Z,13.39
2023-03-24T11:26:05.872Z,13.20
2023-03-24T11:28:39.076Z,13.10
2023-03-24T11:31:09.226Z,13.07
2023-03-24T11:33:43.794Z,12.96
2023-03-24T11:36:30.635Z,12.87
2023-03-24T11:39:12.160Z,12.84
2023-03-24T11:41:43.119Z,12.87
2023-03-24T11:44:24.440Z,12.89
2023-03-24T11:46:57.189Z,12.74
2023-03-24T11:49:30.460Z,12.62
2023-03-24T11:51:57.813Z,12.60
2023-03-24T11:54:32.494Z,12.67
2023-03-24T11:57:08.099Z,12.72
2023-03-24T11:59:40.362Z,12.74
2023-03-24T12:02:25.948Z,12.75
2023-03-24T12:05:10.794Z,12.84
2023-03-24T12:08:16.608Z,12.91
2023-03-24T12:10:52.816Z,12.92
2023-03-24T12:16:05.110Z,12.86
2023-03-24T12:18:48.164Z,12.88
2023-03-24T12:21:35.913Z,12.95
2023-03-24T12:24:23.221Z,13.03
2023-03-24T12:26:55.510Z,13.20
2023-03-24T12:29:57.399Z,13.37
2023-03-24T12:32:52.682Z,13.54
2023-03-24T12:35:55.771Z,13.61
2023-03-24T12:38:34.598Z,13.57
2023-03-24T12:41:18.182Z,13.52
2023-03-24T12:43:54.773Z,13.47
2023-03-24T12:46:47.645Z,13.49
2023-03-24T12:49:39.919Z,13.53
2023-03-24T12:52:35.990Z,13.60
2023-03-24T12:55:18.039Z,13.66
2023-03-24T12:57:51.661Z,13.58
2023-03-24T13:00:23.820Z,13.63
2023-03-24T13:02:58.767Z,13.60
2023-03-24T13:05:38.387Z,13.60
2023-03-24T13:08:16.532Z,13.58
2023-03-24T13:10:47.313Z,13.59
2023-03-24T13:13:37.582Z,13.62
2023-03-24T13:16:11.325Z,13.64
2023-03-24T13:18:44.431Z,13.71
2023-03-24T13:21:16.133Z,13.79
2023-03-24T13:24:01.202Z,13.94
2023-03-24T13:26:47.686Z,13.81
2023-03-24T13:29:47.438Z,13.70
2023-03-24T13:32:24.571Z,13.78
2023-03-24T13:35:12.637Z,13.85
2023-03-24T13:37:43.485Z,13.78
2023-03-24T13:40:26.212Z,13.64
2023-03-24T13:43:18.876Z,13.41
2023-03-24T13:45:51.724Z,12.83
2023-03-24T13:48:42.479Z,12.22
2023-03-24T13:51:25.303Z,11.87
2023-03-24T13:53:56.856Z,11.64
2023-03-24T13:56:41.374Z,11.41
2023-03-24T13:59:29.105Z,11.07
2023-03-24T14:02:23.302Z,10.89
2023-03-24T14:05:02.002Z,10.76
2023-03-24T14:07:41.662Z,10.67
2023-03-24T14:10:14.049Z,10.58
2023-03-24T14:13:24.366Z,10.53
2023-03-24T14:15:58.352Z,10.58
2023-03-24T14:18:25.361Z,10.57
2023-03-24T14:21:07.161Z,10.49
2023-03-24T14:23:51.733Z,10.58
2023-03-24T14:26:21.091Z,10.92
2023-03-24T14:28:52.961Z,11.31
2023-03-24T14:31:29.213Z,11.66
2023-03-24T14:34:14.131Z,11.91
2023-03-24T14:36:45.520Z,12.02
2023-03-24T14:39:24.902Z,12.01
2023-03-24T14:41:52.737Z,11.91
2023-03-24T14:44:49.436Z,11.78
2023-03-24T14:47:28.487Z,11.79
2023-03-24T14:49:58.448Z,11.79
2023-03-24T14:52:39.671Z,11.87
2023-03-24T14:55:12.582Z,12.11
2023-03-24T14:57:42.026Z,12.16
2023-03-24T15:00:33.846Z,12.07
2023-03-24T15:03:00.554Z,11.78
2023-03-24T15:05:31.165Z,11.68
2023-03-24T15:08:21.466Z,11.66
2023-03-24T15:10:55.570Z,11.73
2023-03-24T15:13:32.994Z,11.97
2023-03-24T15:16:03.135Z,12.40
2023-03-24T15:18:30.373Z,12.50
2023-03-24T15:20:57.632Z,12.34
2023-03-24T15:23:28.241Z,12.28
2023-03-24T15:25:56.272Z,12.13
2023-03-24T15:28:30.859Z,11.95
2023-03-24T15:30:59.522Z,11.94
2023-03-24T15:33:26.300Z,12.15
2023-03-24T15:35:58.411Z,12.32
2023-03-24T15:38:32.793Z,12.15
2023-03-24T15:41:07.893Z,12.00
2023-03-24T15:43:45.091Z,12.02
2023-03-24T15:46:30.904Z,12.28
2023-03-24T15:49:00.161Z,12.35
2023-03-24T15:51:50.074Z,12.19
2023-03-24T15:54:21.345Z,11.83
2023-03-24T15:57:02.188Z,11.60
2023-03-24T15:59:37.060Z,11.54
2023-03-24T16:02:11.953Z,11.43
2023-03-24T16:04:41.274Z,11.34
2023-03-24T16:07:23.974Z,11.29
2023-03-24T16:09:58.250Z,11.24
2023-03-24T16:12:25.390Z,11.21
2023-03-24T16:14:52.039Z,11.19
2023-03-24T16:17:18.708Z,11.20
2023-03-24T16:19:45.456Z,11.13
2023-03-24T16:22:12.607Z,11.02
2023-03-24T16:24:39.219Z,10.95
2023-03-24T16:27:05.988Z,11.01
2023-03-24T16:29:32.679Z,11.28
2023-03-24T16:32:00.130Z,11.44
2023-03-24T16:34:26.788Z,11.43
2023-03-24T16:36:56.600Z,11.57
2023-03-24T16:39:28.401Z,11.65
2023-03-24T16:41:56.440Z,11.71
2023-03-24T16:44:23.742Z,11.71
2023-03-24T16:46:53.894Z,11.72
2023-03-24T16:49:24.562Z,11.68
2023-03-24T16:51:52.899Z,11.37
2023-03-24T16:54:21.192Z,11.22
2023-03-24T16:56:48.366Z,11.10
2023-03-24T16:59:16.052Z,10.92
2023-03-24T17:01:46.034Z,10.73
2023-03-24T17:04:19.333Z,10.65
2023-03-24T17:06:53.431Z,10.63
2023-03-24T17:09:21.674Z,10.52
2023-03-24T17:11:52.344Z,10.31
2023-03-24T17:14:19.152Z,10.18
2023-03-24T17:16:49.132Z,10.14
2023-03-24T17:19:18.458Z,10.05
2023-03-24T17:21:54.702Z,9.95
2023-03-24T17:24:21.681Z,9.84
2023-03-24T17:26:48.385Z,9.75
2023-03-24T17:29:15.509Z,9.73
2023-03-24T17:31:45.500Z,9.66
2023-03-24T17:34:21.530Z,9.70
2023-03-24T17:36:50.238Z,9.71
2023-03-24T17:39:18.758Z,9.66
2023-03-24T17:41:45.678Z,9.65
2023-03-24T17:44:13.498Z,9.60
2023-03-24T17:46:40.163Z,9.56
2023-03-24T17:49:06.976Z,9.55
2023-03-24T17:51:33.834Z,9.47
2023-03-24T17:54:00.813Z,9.41
2023-03-24T17:56:27.584Z,9.38
2023-03-24T17:58:55.243Z,9.34
2023-03-24T18:01:23.829Z,9.33
2023-03-24T18:03:50.911Z,9.28
2023-03-24T18:06:17.691Z,9.25
2023-03-24T18:08:44.976Z,9.22
2023-03-24T18:11:14.591Z,9.12
2023-03-24T18:13:42.468Z,9.05
2023-03-24T18:16:20.575Z,9.02
2023-03-24T18:18:48.619Z,8.96
2023-03-24T18:21:15.534Z,8.91
2023-03-24T18:23:42.365Z,8.88
2023-03-24T18:26:09.336Z,8.86
2023-03-24T18:28:38.013Z,8.85
2023-03-24T18:31:13.361Z,8.82
2023-03-24T18:33:42.888Z,8.80
2023-03-24T18:36:10.905Z,8.79
2023-03-24T18:38:37.757Z,8.78
2023-03-24T18:41:06.557Z,8.74
2023-03-24T18:43:37.622Z,8.68
2023-03-24T18:46:05.705Z,8.62
2023-03-24T18:48:32.486Z,8.60
2023-03-24T18:50:59.301Z,8.56
2023-03-24T18:53:26.014Z,8.56
2023-03-24T18:55:53.799Z,8.54
2023-03-24T18:58:20.503Z,8.49
2023-03-24T19:00:49.562Z,8.47
2023-03-24T19:03:17.179Z,8.44
2023-03-24T19:05:43.993Z,8.41
2023-03-24T19:08:14.798Z,8.35
2023-03-24T19:10:43.174Z,8.31
2023-03-24T19:13:12.075Z,8.28
2023-03-24T19:15:39.562Z,8.25
2023-03-24T19:18:06.446Z,8.25
2023-03-24T19:20:35.256Z,8.26
2023-03-24T19:23:02.029Z,8.28
2023-03-24T19:25:28.721Z,8.29
2023-03-24T19:27:55.523Z,8.26
2023-03-24T19:30:22.675Z,8.23
2023-03-24T19:32:49.498Z,8.19
2023-03-24T19:35:16.249Z,8.14
2023-03-24T19:37:42.985Z,8.14
2023-03-24T19:40:11.966Z,8.15
2023-03-24T19:42:41.938Z,8.13
2023-03-24T19:45:10.019Z,8.11
2023-03-24T19:47:36.952Z,8.08
2023-03-24T19:50:07.976Z,8.07
2023-03-24T19:52:35.516Z,8.06
2023-03-24T19:55:02.912Z,8.06
2023-03-24T19:57:31.886Z,7.99
2023-03-24T19:59:59.276Z,7.99
2023-03-24T20:02:26.308Z,7.98
2023-03-24T20:04:55.226Z,8.01
2023-03-24T20:07:23.333Z,7.99
2023-03-24T20:09:50.844Z,8.00
2023-03-24T20:12:17.516Z,7.99
2023-03-24T20:14:44.539Z,7.99
2023-03-24T20:17:19.373Z,8.01
2023-03-24T20:19:48.065Z,8.04
2023-03-24T20:22:15.677Z,8.07
2023-03-24T20:24:44.458Z,8.07
2023-03-24T20:27:11.403Z,8.10
2023-03-24T20:29:39.718Z,8.14
2023-03-24T20:32:08.237Z,8.15
2023-03-24T20:34:34.932Z,8.18
2023-03-24T20:37:01.611Z,8.19
2023-03-24T20:39:29.356Z,8.19
2023-03-24T20:41:55.995Z,8.22
2023-03-24T20:44:22.819Z,8.24
2023-03-24T20:46:49.520Z,8.24
2023-03-24T20:49:17.608Z,8.24
2023-03-24T20:51:45.693Z,8.24
2023-03-24T20:54:12.393Z,8.24
2023-03-24T20:56:39.049Z,8.25
2023-03-24T20:59:07.464Z,8.26
2023-03-24T21:01:36.142Z,8.26
2023-03-24T21:04:09.077Z,8.26
2023-03-24T21:06:40.351Z,8.26
2023-03-24T21:09:07.220Z,8.27
2023-03-24T21:11:34.539Z,8.27
2023-03-24T21:14:02.721Z,8.28
2023-03-24T21:16:33.890Z,8.29
2023-03-24T21:19:01.941Z,8.28
2023-03-24T21:21:29.396Z,8.27
2023-03-24T21:23:57.696Z,8.26
2023-03-24T21:26:25.330Z,8.25
2023-03-24T21:28:53.366Z,8.24
2023-03-24T21:31:28.159Z,8.25
2023-03-24T21:33:56.563Z,8.24
2023-03-24T21:36:25.545Z,8.25
2023-03-24T21:38:54.072Z,8.23
2023-03-24T21:41:22.998Z,8.22
2023-03-24T21:43:54.569Z,8.21
2023-03-24T21:46:22.328Z,8.20
2023-03-24T21:48:55.589Z,8.18
2023-03-24T21:51:30.776Z,8.15
2023-03-24T21:54:03.675Z,8.11
2023-03-24T21:56:32.865Z,8.08
2023-03-24T21:59:00.271Z,8.07
2023-03-24T22:01:27.292Z,8.08
2023-03-24T22:03:59.005Z,8.09
2023-03-24T22:06:29.445Z,8.07
2023-03-24T22:08:58.632Z,8.06
2023-03-24T22:11:25.899Z,8.03
2023-03-24T22:13:52.719Z,8.03
2023-03-24T22:16:19.412Z,8.03
2023-03-24T22:18:47.355Z,8.04
2023-03-24T22:21:14.794Z,8.05
2023-03-24T22:23:43.024Z,8.05
2023-03-24T22:26:15.480Z,8.06
2023-03-24T22:28:42.616Z,8.03
2023-03-24T22:31:13.140Z,8.02
2023-03-24T22:33:41.192Z,8.01
2023-03-24T22:36:09.248Z,8.03
2023-03-24T22:38:38.005Z,8.03
2023-03-24T22:41:07.392Z,8.02
2023-03-24T22:43:35.363Z,7.99
2023-03-24T22:46:02.519Z,7.93
2023-03-24T22:48:29.244Z,7.91
2023-03-24T22:50:56.196Z,7.88
2023-03-24T22:53:22.986Z,7.88
2023-03-24T22:55:50.057Z,7.87
2023-03-24T22:58:17.120Z,7.89
2023-03-24T23:00:47.218Z,7.90
2023-03-24T23:03:14.039Z,7.90
2023-03-24T23:05:45.743Z,7.89
2023-03-24T23:08:14.530Z,7.91
2023-03-24T23:10:43.381Z,7.90
2023-03-24T23:13:10.769Z,7.91
2023-03-24T23:15:38.895Z,7.90
2023-03-24T23:18:05.728Z,7.90
2023-03-24T23:20:33.077Z,7.89
2023-03-24T23:23:01.408Z,7.88
2023-03-24T23:25:31.150Z,7.86
2023-03-24T23:27:58.684Z,7.86
2023-03-24T23:30:25.773Z,7.85
2023-03-24T23:32:53.150Z,7.82
2023-03-24T23:35:20.346Z,7.82
2023-03-24T23:37:47.011Z,7.80
2023-03-24T23:40:14.923Z,7.81
2023-03-24T23:42:44.889Z,7.81
2023-03-24T23:45:14.732Z,7.83
2023-03-24T23:47:49.920Z,7.84
2023-03-24T23:50:20.586Z,7.80
2023-03-24T23:52:47.805Z,7.75
2023-03-24T23:55:17.872Z,7.74
2023-03-24T23:57:45.499Z,7.74
